createdAt,value
2023-02-20T00:00:30.256Z,1011.14
2023-02-20T00:01:01.188Z,1011.14
2023-02-20T00:01:33.254Z,1011.14
2023-02-20T00:02:05.261Z,1010.94
2023-02-20T00:02:37.884Z,1010.94
2023-02-20T00:03:09.862Z,1010.94
2023-02-20T00:03:34.584Z,1011.14
2023-02-20T00:03:57.668Z,1011.14
2023-02-20T00:04:29.746Z,1011.14
2023-02-20T00:05:02.982Z,1011.04
2023-02-20T00:05:33.165Z,1011.04
2023-02-20T00:06:05.152Z,1010.94
2023-02-20T00:06:37.175Z,1010.94
2023-02-20T00:07:09.199Z,1010.94
2023-02-20T00:07:34.538Z,1010.84
2023-02-20T00:07:57.205Z,1010.84
2023-02-20T00:08:29.740Z,1010.84
2023-02-20T00:09:01.778Z,1010.84
2023-02-20T00:09:33.187Z,1010.84
2023-02-20T00:10:05.524Z,1011.04
2023-02-20T00:10:37.202Z,1011.04
2023-02-20T00:11:09.179Z,1010.94
2023-02-20T00:11:34.533Z,1010.73
2023-02-20T00:11:57.177Z,1010.73
2023-02-20T00:12:29.870Z,1010.73
2023-02-20T00:13:01.200Z,1010.84
2023-02-20T00:13:33.189Z,1010.84
2023-02-20T00:14:05.123Z,1010.84
2023-02-20T00:14:37.123Z,1010.84
2023-02-20T00:15:09.685Z,1010.73
2023-02-20T00:15:34.905Z,1010.84
2023-02-20T00:15:57.423Z,1010.84
2023-02-20T00:16:29.854Z,1010.84
2023-02-20T00:17:01.215Z,1010.84
2023-02-20T00:17:33.195Z,1010.84
2023-02-20T00:18:05.158Z,1010.84
2023-02-20T00:18:37.996Z,1010.84
2023-02-20T00:19:09.197Z,1010.73
2023-02-20T00:19:34.553Z,1010.84
2023-02-20T00:19:57.146Z,1010.84
2023-02-20T00:20:30.069Z,1010.84
2023-02-20T00:21:01.607Z,1010.73
2023-02-20T00:21:34.592Z,1010.73
2023-02-20T00:22:05.154Z,1010.63
2023-02-20T00:22:37.158Z,1010.63
2023-02-20T00:23:09.144Z,1010.63
2023-02-20T00:23:34.511Z,1010.63
2023-02-20T00:23:57.198Z,1010.63
2023-02-20T00:24:29.753Z,1010.63
2023-02-20T00:25:03.478Z,1010.73
2023-02-20T00:25:33.204Z,1010.73
2023-02-20T00:26:05.193Z,1010.73
2023-02-20T00:26:37.135Z,1010.73
2023-02-20T00:27:09.736Z,1010.73
2023-02-20T00:27:35.052Z,1010.84
2023-02-20T00:27:57.251Z,1010.84
2023-02-20T00:28:29.784Z,1010.84
2023-02-20T00:29:01.150Z,1010.73
2023-02-20T00:29:34.551Z,1010.73
2023-02-20T00:30:07.595Z,1010.73
2023-02-20T00:30:37.951Z,1010.73
2023-02-20T00:31:09.247Z,1010.73
2023-02-20T00:31:34.548Z,1010.73
2023-02-20T00:31:57.279Z,1010.73
2023-02-20T00:32:29.753Z,1010.73
2023-02-20T00:33:02.731Z,1010.63
2023-02-20T00:33:33.231Z,1010.63
2023-02-20T00:34:05.178Z,1010.73
2023-02-20T00:34:37.969Z,1010.73
2023-02-20T00:35:09.448Z,1010.73
2023-02-20T00:35:34.537Z,1010.84
2023-02-20T00:35:57.441Z,1010.84
2023-02-20T00:36:29.769Z,1010.84
2023-02-20T00:37:01.201Z,1010.53
2023-02-20T00:37:33.198Z,1010.53
2023-02-20T00:38:05.157Z,1010.63
2023-02-20T00:38:37.495Z,1010.63
2023-02-20T00:39:09.179Z,1010.94
2023-02-20T00:39:34.524Z,1010.63
2023-02-20T00:39:57.207Z,1010.63
2023-02-20T00:40:30.071Z,1010.63
2023-02-20T00:41:04.139Z,1010.53
2023-02-20T00:41:33.172Z,1010.53
2023-02-20T00:42:05.172Z,1010.73
2023-02-20T00:42:37.210Z,1010.73
2023-02-20T00:43:09.225Z,1010.73
2023-02-20T00:43:34.546Z,1010.84
2023-02-20T00:43:57.188Z,1010.84
2023-02-20T00:44:29.763Z,1010.84
2023-02-20T00:45:03.440Z,1010.73
2023-02-20T00:45:33.203Z,1010.73
2023-02-20T00:46:07.036Z,1010.94
2023-02-20T00:46:37.172Z,1010.94
2023-02-20T00:47:09.681Z,1010.73
2023-02-20T00:47:34.536Z,1010.84
2023-02-20T00:47:57.199Z,1010.84
2023-02-20T00:48:29.804Z,1010.84
2023-02-20T00:49:01.505Z,1010.84
2023-02-20T00:49:33.214Z,1010.84
2023-02-20T00:50:05.471Z,1010.84
2023-02-20T00:50:38.034Z,1010.84
2023-02-20T00:51:09.234Z,1010.94
2023-02-20T00:51:35.138Z,1010.94
2023-02-20T00:51:57.210Z,1010.94
2023-02-20T00:52:29.713Z,1010.94
2023-02-20T00:53:01.167Z,1010.73
2023-02-20T00:53:33.197Z,1010.73
2023-02-20T00:54:05.181Z,1010.63
2023-02-20T00:54:37.131Z,1010.63
2023-02-20T00:55:09.489Z,1010.73
2023-02-20T00:55:34.806Z,1010.73
2023-02-20T00:55:57.459Z,1010.73
2023-02-20T00:56:29.781Z,1010.73
2023-02-20T00:57:04.863Z,1010.84
2023-02-20T00:57:33.236Z,1010.84
2023-02-20T00:58:05.190Z,1010.73
2023-02-20T00:58:37.231Z,1010.73
2023-02-20T00:59:09.192Z,1010.63
2023-02-20T00:59:34.519Z,1010.84
2023-02-20T00:59:57.157Z,1010.84
2023-02-20T01:00:30.433Z,1010.84
2023-02-20T01:01:01.181Z,1010.73
2023-02-20T01:01:33.289Z,1010.73
2023-02-20T01:02:05.177Z,1010.63
2023-02-20T01:02:37.177Z,1010.63
2023-02-20T01:03:09.192Z,1010.84
2023-02-20T01:03:35.138Z,1010.84
2023-02-20T01:03:57.193Z,1010.84
2023-02-20T01:04:29.800Z,1010.84
2023-02-20T01:05:03.154Z,1010.63
2023-02-20T01:05:33.240Z,1010.63
2023-02-20T01:06:05.214Z,1010.63
2023-02-20T01:06:38.020Z,1010.63
2023-02-20T01:07:09.141Z,1010.73
2023-02-20T01:07:34.563Z,1010.73
2023-02-20T01:07:57.176Z,1010.73
2023-02-20T01:08:29.764Z,1010.73
2023-02-20T01:09:01.158Z,1010.53
2023-02-20T01:09:33.637Z,1010.53
2023-02-20T01:10:05.457Z,1010.73
2023-02-20T01:10:37.161Z,1010.73
2023-02-20T01:11:09.788Z,1010.73
2023-02-20T01:11:34.516Z,1010.63
2023-02-20T01:11:57.276Z,1010.63
2023-02-20T01:12:29.781Z,1010.63
2023-02-20T01:13:05.727Z,1010.63
2023-02-20T01:13:33.182Z,1010.63
2023-02-20T01:14:05.189Z,1010.73
2023-02-20T01:14:37.191Z,1010.73
2023-02-20T01:15:09.680Z,1010.73
2023-02-20T01:15:34.516Z,1010.94
2023-02-20T01:15:57.485Z,1010.94
2023-02-20T01:16:29.791Z,1010.94
2023-02-20T01:17:01.191Z,1010.73
2023-02-20T01:17:33.176Z,1010.73
2023-02-20T01:18:05.173Z,1010.73
2023-02-20T01:18:34.501Z,1010.73
2023-02-20T01:18:53.283Z,1010.73
2023-02-20T01:19:25.990Z,1010.73
2023-02-20T01:19:42.808Z,1010.84
2023-02-20T01:20:15.413Z,1010.84
2023-02-20T01:20:35.069Z,1010.73
2023-02-20T01:21:01.207Z,1010.73
2023-02-20T01:21:33.184Z,1010.73
2023-02-20T01:22:05.206Z,1010.84
2023-02-20T01:22:37.923Z,1010.84
2023-02-20T01:23:09.181Z,1010.63
2023-02-20T01:23:35.125Z,1010.84
2023-02-20T01:23:57.682Z,1010.84
2023-02-20T01:24:29.721Z,1010.84
2023-02-20T01:25:03.129Z,1010.94
2023-02-20T01:25:33.227Z,1010.94
2023-02-20T01:26:06.158Z,1010.84
2023-02-20T01:26:37.187Z,1010.84
2023-02-20T01:27:09.179Z,1010.53
2023-02-20T01:27:34.529Z,1010.63
2023-02-20T01:27:57.893Z,1010.63
2023-02-20T01:28:29.689Z,1010.63
2023-02-20T01:29:01.233Z,1010.84
2023-02-20T01:29:33.224Z,1010.84
2023-02-20T01:30:07.374Z,1010.53
2023-02-20T01:30:37.910Z,1010.53
2023-02-20T01:31:09.310Z,1010.73
2023-02-20T01:31:34.573Z,1010.53
2023-02-20T01:31:57.348Z,1010.53
2023-02-20T01:32:30.215Z,1010.53
2023-02-20T01:33:02.776Z,1010.84
2023-02-20T01:33:34.176Z,1010.84
2023-02-20T01:34:05.156Z,1010.73
2023-02-20T01:34:34.524Z,1010.84
2023-02-20T01:34:53.178Z,1010.84
2023-02-20T01:35:25.442Z,1010.84
2023-02-20T01:35:42.698Z,1010.84
2023-02-20T01:36:13.451Z,1010.84
2023-02-20T01:36:35.014Z,1010.53
2023-02-20T01:37:01.201Z,1010.53
2023-02-20T01:37:33.241Z,1010.53
2023-02-20T01:38:05.236Z,1010.84
2023-02-20T01:38:37.239Z,1010.84
2023-02-20T01:39:09.145Z,1010.73
2023-02-20T01:39:34.506Z,1010.73
2023-02-20T01:39:57.234Z,1010.73
2023-02-20T01:40:30.464Z,1010.73
2023-02-20T01:41:02.274Z,1010.73
2023-02-20T01:41:33.208Z,1010.73
2023-02-20T01:42:05.865Z,1010.73
2023-02-20T01:42:37.319Z,1010.73
2023-02-20T01:43:09.250Z,1010.73
2023-02-20T01:43:35.410Z,1010.84
2023-02-20T01:43:57.655Z,1010.84
2023-02-20T01:44:30.042Z,1010.84
2023-02-20T01:45:02.616Z,1010.73
2023-02-20T01:45:33.506Z,1010.73
2023-02-20T01:46:07.360Z,1010.84
2023-02-20T01:46:37.400Z,1010.84
2023-02-20T01:47:09.395Z,1010.73
2023-02-20T01:47:34.701Z,1010.73
2023-02-20T01:47:57.407Z,1010.73
2023-02-20T01:48:30.601Z,1010.73
2023-02-20T01:49:01.417Z,1010.73
2023-02-20T01:49:33.197Z,1010.73
2023-02-20T01:50:05.474Z,1010.84
2023-02-20T01:50:37.166Z,1010.84
2023-02-20T01:51:09.223Z,1010.63
2023-02-20T01:51:35.340Z,1010.73
2023-02-20T01:51:57.195Z,1010.73
2023-02-20T01:52:29.851Z,1010.73
2023-02-20T01:53:01.200Z,1010.63
2023-02-20T01:53:33.247Z,1010.63
2023-02-20T01:54:05.173Z,1010.73
2023-02-20T01:54:37.226Z,1010.73
2023-02-20T01:55:09.571Z,1010.63
2023-02-20T01:55:34.552Z,1010.73
2023-02-20T01:55:57.449Z,1010.73
2023-02-20T01:56:29.870Z,1010.73
2023-02-20T01:57:01.926Z,1010.53
2023-02-20T01:57:33.223Z,1010.53
2023-02-20T01:58:05.190Z,1010.63
2023-02-20T01:58:37.194Z,1010.63
2023-02-20T01:59:09.217Z,1010.73
2023-02-20T01:59:34.499Z,1010.63
2023-02-20T01:59:57.227Z,1010.63
2023-02-20T02:00:30.378Z,1010.63
2023-02-20T02:01:01.349Z,1010.33
2023-02-20T02:01:33.333Z,1010.33
2023-02-20T02:02:05.243Z,1010.43
2023-02-20T02:02:37.482Z,1010.43
2023-02-20T02:03:09.262Z,1010.63
2023-02-20T02:03:34.504Z,1010.23
2023-02-20T02:03:57.181Z,1010.23
2023-02-20T02:04:29.688Z,1010.23
2023-02-20T02:05:03.246Z,1010.43
2023-02-20T02:05:33.201Z,1010.43
2023-02-20T02:06:05.189Z,1010.43
2023-02-20T02:06:37.810Z,1010.43
2023-02-20T02:07:09.209Z,1010.33
2023-02-20T02:07:34.553Z,1010.43
2023-02-20T02:07:57.278Z,1010.43
2023-02-20T02:08:29.731Z,1010.43
2023-02-20T02:09:01.240Z,1010.33
2023-02-20T02:09:33.248Z,1010.33
2023-02-20T02:10:05.486Z,1010.33
2023-02-20T02:10:38.005Z,1010.33
2023-02-20T02:11:09.219Z,1010.12
2023-02-20T02:11:34.643Z,1010.02
2023-02-20T02:11:57.217Z,1010.02
2023-02-20T02:12:29.659Z,1010.02
2023-02-20T02:13:01.702Z,1010.23
2023-02-20T02:13:33.195Z,1010.23
2023-02-20T02:14:05.282Z,1010.23
2023-02-20T02:14:37.196Z,1010.23
2023-02-20T02:15:09.709Z,1010.12
2023-02-20T02:15:34.537Z,1010.12
2023-02-20T02:15:57.499Z,1010.12
2023-02-20T02:16:29.839Z,1010.12
2023-02-20T02:17:01.236Z,1010.33
2023-02-20T02:17:33.522Z,1010.33
2023-02-20T02:18:05.191Z,1010.02
2023-02-20T02:18:37.228Z,1010.02
2023-02-20T02:19:09.221Z,1010.23
2023-02-20T02:19:34.482Z,1010.23
2023-02-20T02:19:57.220Z,1010.23
2023-02-20T02:20:30.003Z,1010.23
2023-02-20T02:21:01.219Z,1010.33
2023-02-20T02:21:33.189Z,1010.33
2023-02-20T02:22:05.186Z,1010.12
2023-02-20T02:22:38.089Z,1010.12
2023-02-20T02:23:09.201Z,1010.23
2023-02-20T02:23:34.499Z,1010.23
2023-02-20T02:23:57.199Z,1010.23
2023-02-20T02:24:29.760Z,1010.23
2023-02-20T02:25:03.148Z,1010.02
2023-02-20T02:25:33.256Z,1010.02
2023-02-20T02:26:05.175Z,1010.23
2023-02-20T02:26:37.224Z,1010.23
2023-02-20T02:27:09.753Z,1009.92
2023-02-20T02:27:34.722Z,1009.92
2023-02-20T02:27:57.216Z,1009.92
2023-02-20T02:28:29.643Z,1009.92
2023-02-20T02:29:01.572Z,1010.02
2023-02-20T02:29:33.182Z,1010.02
2023-02-20T02:30:07.224Z,1009.92
2023-02-20T02:30:37.250Z,1009.92
2023-02-20T02:31:09.377Z,1009.92
2023-02-20T02:31:34.626Z,1009.92
2023-02-20T02:31:57.329Z,1009.92
2023-02-20T02:32:29.670Z,1009.92
2023-02-20T02:33:02.801Z,1010.12
2023-02-20T02:33:33.210Z,1010.12
2023-02-20T02:34:05.238Z,1010.02
2023-02-20T02:34:37.251Z,1010.02
2023-02-20T02:35:09.497Z,1010.02
2023-02-20T02:35:35.386Z,1009.92
2023-02-20T02:35:57.455Z,1009.92
2023-02-20T02:36:29.689Z,1009.92
2023-02-20T02:37:01.202Z,1010.12
2023-02-20T02:37:33.221Z,1010.12
2023-02-20T02:38:05.158Z,1010.02
2023-02-20T02:38:38.040Z,1010.02
2023-02-20T02:39:09.170Z,1010.12
2023-02-20T02:39:34.509Z,1009.92
2023-02-20T02:39:57.509Z,1009.92
2023-02-20T02:40:31.074Z,1009.92
2023-02-20T02:41:01.199Z,1010.12
2023-02-20T02:41:33.228Z,1010.12
2023-02-20T02:42:05.193Z,1010.12
2023-02-20T02:42:37.381Z,1010.12
2023-02-20T02:43:09.140Z,1010.02
2023-02-20T02:43:34.494Z,1009.92
2023-02-20T02:43:57.184Z,1009.92
2023-02-20T02:44:29.656Z,1009.92
2023-02-20T02:45:03.889Z,1009.92
2023-02-20T02:45:33.341Z,1009.92
2023-02-20T02:46:07.012Z,1010.23
2023-02-20T02:46:35.489Z,1010.33
2023-02-20T02:46:53.220Z,1010.33
2023-02-20T02:47:25.155Z,1010.33
2023-02-20T02:47:42.291Z,1010.12
2023-02-20T02:48:18.836Z,1010.12
2023-02-20T02:48:36.035Z,1010.12
2023-02-20T02:49:01.181Z,1010.12
2023-02-20T02:49:33.218Z,1010.12
2023-02-20T02:50:05.553Z,1010.02
2023-02-20T02:50:37.225Z,1010.02
2023-02-20T02:51:09.370Z,1010.02
2023-02-20T02:51:34.486Z,1010.02
2023-02-20T02:51:57.229Z,1010.02
2023-02-20T02:52:29.666Z,1010.02
2023-02-20T02:53:01.190Z,1010.12
2023-02-20T02:53:33.240Z,1010.12
2023-02-20T02:54:05.160Z,1010.02
2023-02-20T02:54:37.197Z,1010.02
2023-02-20T02:55:09.487Z,1009.92
2023-02-20T02:55:34.490Z,1009.92
2023-02-20T02:55:57.481Z,1009.92
2023-02-20T02:56:29.761Z,1009.92
2023-02-20T02:57:02.011Z,1010.12
2023-02-20T02:57:33.256Z,1010.12
2023-02-20T02:58:05.198Z,1009.82
2023-02-20T02:58:37.261Z,1009.82
2023-02-20T02:59:09.211Z,1010.02
2023-02-20T02:59:34.880Z,1010.02
2023-02-20T02:59:57.237Z,1010.02
2023-02-20T03:00:30.309Z,1010.02
2023-02-20T03:01:01.259Z,1010.12
2023-02-20T03:01:33.279Z,1010.12
2023-02-20T03:02:05.157Z,1009.92
2023-02-20T03:02:34.569Z,1010.12
2023-02-20T03:02:53.306Z,1010.12
2023-02-20T03:03:25.921Z,1010.12
2023-02-20T03:03:42.445Z,1010.33
2023-02-20T03:04:13.435Z,1010.33
2023-02-20T03:04:35.021Z,1010.12
2023-02-20T03:05:03.000Z,1010.12
2023-02-20T03:05:33.256Z,1010.12
2023-02-20T03:06:05.195Z,1010.02
2023-02-20T03:06:35.444Z,1010.23
2023-02-20T03:06:53.225Z,1010.23
2023-02-20T03:07:25.179Z,1010.23
2023-02-20T03:07:42.306Z,1009.82
2023-02-20T03:08:13.186Z,1009.82
2023-02-20T03:08:34.985Z,1010.02
2023-02-20T03:09:01.222Z,1010.02
2023-02-20T03:09:33.320Z,1010.02
2023-02-20T03:10:05.468Z,1010.02
2023-02-20T03:10:37.234Z,1010.02
2023-02-20T03:11:09.169Z,1010.02
2023-02-20T03:11:34.481Z,1009.92
2023-02-20T03:11:57.242Z,1009.92
2023-02-20T03:12:29.674Z,1009.92
2023-02-20T03:13:02.063Z,1009.92
2023-02-20T03:13:33.301Z,1009.92
2023-02-20T03:14:05.209Z,1010.12
2023-02-20T03:14:34.801Z,1009.82
2023-02-20T03:14:53.227Z,1009.82
2023-02-20T03:15:25.653Z,1009.82
2023-02-20T03:15:42.314Z,1010.02
2023-02-20T03:16:14.484Z,1010.02
2023-02-20T03:16:35.665Z,1010.02
2023-02-20T03:17:01.210Z,1010.02
2023-02-20T03:17:33.200Z,1010.02
2023-02-20T03:18:05.180Z,1009.92
2023-02-20T03:18:34.513Z,1009.82
2023-02-20T03:18:53.236Z,1009.82
2023-02-20T03:19:25.840Z,1009.82
2023-02-20T03:19:42.432Z,1009.82
2023-02-20T03:20:13.462Z,1009.82
2023-02-20T03:20:34.989Z,1009.92
2023-02-20T03:21:01.279Z,1009.92
2023-02-20T03:21:33.197Z,1009.92
2023-02-20T03:22:05.197Z,1009.92
2023-02-20T03:22:35.501Z,1009.72
2023-02-20T03:22:53.250Z,1009.72
2023-02-20T03:23:25.187Z,1009.72
2023-02-20T03:23:42.278Z,1009.82
2023-02-20T03:24:13.253Z,1009.82
2023-02-20T03:24:35.726Z,1010.02
2023-02-20T03:25:03.025Z,1010.02
2023-02-20T03:25:33.224Z,1010.02
2023-02-20T03:26:05.162Z,1009.92
2023-02-20T03:26:34.715Z,1009.82
2023-02-20T03:26:53.318Z,1009.82
2023-02-20T03:27:25.183Z,1009.82
2023-02-20T03:27:42.355Z,1010.02
2023-02-20T03:28:13.175Z,1010.02
2023-02-20T03:28:35.190Z,1009.82
2023-02-20T03:29:01.890Z,1009.82
2023-02-20T03:29:33.252Z,1009.82
2023-02-20T03:30:07.181Z,1010.02
2023-02-20T03:30:34.581Z,1009.82
2023-02-20T03:30:53.670Z,1009.82
2023-02-20T03:31:25.327Z,1009.82
2023-02-20T03:31:42.436Z,1009.92
2023-02-20T03:32:14.011Z,1009.92
2023-02-20T03:32:35.321Z,1009.82
2023-02-20T03:33:02.827Z,1009.82
2023-02-20T03:33:33.244Z,1009.82
2023-02-20T03:34:05.211Z,1010.02
2023-02-20T03:34:37.214Z,1010.02
2023-02-20T03:35:10.275Z,1009.92
2023-02-20T03:35:34.467Z,1009.92
2023-02-20T03:35:57.519Z,1009.92
2023-02-20T03:36:29.713Z,1009.92
2023-02-20T03:37:01.202Z,1009.82
2023-02-20T03:37:33.231Z,1009.82
2023-02-20T03:38:05.193Z,1009.92
2023-02-20T03:38:35.837Z,1009.92
2023-02-20T03:38:53.209Z,1009.92
2023-02-20T03:39:25.201Z,1009.92
2023-02-20T03:39:42.320Z,1010.02
2023-02-20T03:40:13.492Z,1010.02
2023-02-20T03:40:35.002Z,1009.92
2023-02-20T03:41:01.265Z,1009.92
2023-02-20T03:41:33.188Z,1009.92
2023-02-20T03:42:05.198Z,1009.92
2023-02-20T03:42:37.222Z,1009.92
2023-02-20T03:43:09.206Z,1010.02
2023-02-20T03:43:34.993Z,1009.92
2023-02-20T03:43:57.275Z,1009.92
2023-02-20T03:44:30.021Z,1009.92
2023-02-20T03:45:03.852Z,1010.02
2023-02-20T03:45:33.586Z,1010.02
2023-02-20T03:46:07.187Z,1010.12
2023-02-20T03:46:34.490Z,1010.02
2023-02-20T03:46:53.234Z,1010.02
2023-02-20T03:47:25.189Z,1010.02
2023-02-20T03:47:42.328Z,1009.92
2023-02-20T03:48:13.979Z,1009.92
2023-02-20T03:48:35.011Z,1010.02
2023-02-20T03:49:01.298Z,1010.02
2023-02-20T03:49:33.211Z,1010.02
2023-02-20T03:50:05.482Z,1010.23
2023-02-20T03:50:34.735Z,1010.02
2023-02-20T03:50:53.506Z,1010.02
2023-02-20T03:51:26.090Z,1010.02
2023-02-20T03:51:57.312Z,1010.33
2023-02-20T03:52:29.734Z,1010.33
2023-02-20T03:53:01.271Z,1010.12
2023-02-20T03:53:33.204Z,1010.12
2023-02-20T03:54:05.303Z,1010.33
2023-02-20T03:54:37.234Z,1010.33
2023-02-20T03:55:09.549Z,1010.23
2023-02-20T03:55:34.479Z,1010.23
2023-02-20T03:55:57.802Z,1010.23
2023-02-20T03:56:29.731Z,1010.23
2023-02-20T03:57:02.005Z,1010.02
2023-02-20T03:57:33.223Z,1010.02
2023-02-20T03:58:05.208Z,1010.12
2023-02-20T03:58:37.258Z,1010.12
2023-02-20T03:59:09.826Z,1010.12
2023-02-20T03:59:34.482Z,1009.92
2023-02-20T03:59:57.249Z,1009.92
2023-02-20T04:00:30.404Z,1009.92
2023-02-20T04:01:01.297Z,1010.02
2023-02-20T04:01:33.268Z,1010.02
2023-02-20T04:02:05.219Z,1010.23
2023-02-20T04:02:34.801Z,1010.12
2023-02-20T04:02:53.238Z,1010.12
2023-02-20T04:03:25.977Z,1010.12
2023-02-20T04:03:42.496Z,1010.23
2023-02-20T04:04:13.198Z,1010.23
2023-02-20T04:04:35.006Z,1010.02
2023-02-20T04:05:03.249Z,1010.02
2023-02-20T04:05:33.242Z,1010.02
2023-02-20T04:06:05.219Z,1010.23
2023-02-20T04:06:51.021Z,1010.02
2023-02-20T04:07:09.216Z,1010.02
2023-02-20T04:07:34.490Z,1010.02
2023-02-20T04:07:57.262Z,1010.02
2023-02-20T04:08:29.737Z,1010.02
2023-02-20T04:09:01.579Z,1010.12
2023-02-20T04:09:33.263Z,1010.12
2023-02-20T04:10:07.037Z,1010.12
2023-02-20T04:10:34.474Z,1010.23
2023-02-20T04:10:53.479Z,1010.23
2023-02-20T04:11:25.221Z,1010.23
2023-02-20T04:11:42.359Z,1010.23
2023-02-20T04:12:13.253Z,1010.23
2023-02-20T04:12:35.017Z,1010.02
2023-02-20T04:13:01.238Z,1010.02
2023-02-20T04:13:33.868Z,1010.02
2023-02-20T04:14:05.223Z,1010.02
2023-02-20T04:14:34.509Z,1010.23
2023-02-20T04:14:53.212Z,1010.23
2023-02-20T04:15:25.768Z,1010.23
2023-02-20T04:15:42.389Z,1010.23
2023-02-20T04:16:13.547Z,1010.23
2023-02-20T04:16:36.034Z,1010.12
2023-02-20T04:17:01.228Z,1010.12
2023-02-20T04:17:33.269Z,1010.12
2023-02-20T04:18:05.249Z,1010.23
2023-02-20T04:18:34.504Z,1010.23
2023-02-20T04:18:53.234Z,1010.23
2023-02-20T04:19:25.199Z,1010.23
2023-02-20T04:19:43.067Z,1010.33
2023-02-20T04:20:13.594Z,1010.33
2023-02-20T04:20:35.044Z,1010.33
2023-02-20T04:21:01.238Z,1010.33
2023-02-20T04:21:33.340Z,1010.33
2023-02-20T04:22:05.202Z,1010.12
2023-02-20T04:22:34.489Z,1010.33
2023-02-20T04:22:53.814Z,1010.33
2023-02-20T04:23:25.324Z,1010.33
2023-02-20T04:23:42.474Z,1010.23
2023-02-20T04:24:13.231Z,1010.23
2023-02-20T04:24:34.983Z,1010.33
2023-02-20T04:25:03.032Z,1010.33
2023-02-20T04:25:33.260Z,1010.33
2023-02-20T04:26:05.845Z,1010.43
2023-02-20T04:26:34.503Z,1010.33
2023-02-20T04:26:53.605Z,1010.33
2023-02-20T04:27:25.199Z,1010.33
2023-02-20T04:27:42.327Z,1010.12
2023-02-20T04:28:13.242Z,1010.12
2023-02-20T04:28:35.035Z,1010.23
2023-02-20T04:29:01.245Z,1010.23
2023-02-20T04:29:33.231Z,1010.23
2023-02-20T04:30:07.277Z,1010.12
2023-02-20T04:30:34.624Z,1010.23
2023-02-20T04:30:53.700Z,1010.23
2023-02-20T04:31:25.306Z,1010.23
2023-02-20T04:31:42.425Z,1010.23
2023-02-20T04:32:13.176Z,1010.23
2023-02-20T04:32:35.325Z,1010.23
2023-02-20T04:33:02.681Z,1010.23
2023-02-20T04:33:33.985Z,1010.23
2023-02-20T04:34:05.208Z,1009.92
2023-02-20T04:34:37.314Z,1009.92
2023-02-20T04:35:09.508Z,1010.23
2023-02-20T04:35:35.091Z,1010.12
2023-02-20T04:35:57.463Z,1010.12
2023-02-20T04:36:29.702Z,1010.12
2023-02-20T04:37:01.224Z,1010.12
2023-02-20T04:37:33.739Z,1010.12
2023-02-20T04:38:05.226Z,1010.02
2023-02-20T04:38:37.798Z,1010.02
2023-02-20T04:39:09.223Z,1010.12
2023-02-20T04:39:34.465Z,1010.12
2023-02-20T04:39:57.262Z,1010.12
2023-02-20T04:40:29.952Z,1010.12
2023-02-20T04:41:01.266Z,1010.12
2023-02-20T04:41:33.314Z,1010.12
2023-02-20T04:42:05.230Z,1009.92
2023-02-20T04:42:34.468Z,1010.12
2023-02-20T04:42:53.270Z,1010.12
2023-02-20T04:43:25.217Z,1010.12
2023-02-20T04:43:42.344Z,1009.82
2023-02-20T04:44:13.246Z,1009.82
2023-02-20T04:44:34.982Z,1009.92
2023-02-20T04:45:03.657Z,1009.92
2023-02-20T04:45:34.036Z,1009.92
2023-02-20T04:46:07.011Z,1010.12
2023-02-20T04:46:34.551Z,1010.12
2023-02-20T04:46:53.292Z,1010.12
2023-02-20T04:47:25.236Z,1010.12
2023-02-20T04:47:57.264Z,1010.02
2023-02-20T04:48:29.313Z,1010.02
2023-02-20T04:49:01.258Z,1010.23
2023-02-20T04:49:33.299Z,1010.23
2023-02-20T04:50:05.579Z,1010.23
2023-02-20T04:50:34.484Z,1010.12
2023-02-20T04:50:53.598Z,1010.12
2023-02-20T04:51:25.796Z,1010.12
2023-02-20T04:51:42.324Z,1010.23
2023-02-20T04:52:13.234Z,1010.23
2023-02-20T04:52:35.384Z,1010.12
2023-02-20T04:53:01.258Z,1010.12
2023-02-20T04:53:33.252Z,1010.12
2023-02-20T04:54:05.215Z,1010.23
2023-02-20T04:54:34.477Z,1010.33
2023-02-20T04:54:53.330Z,1010.33
2023-02-20T04:55:25.525Z,1010.33
2023-02-20T04:55:42.336Z,1010.12
2023-02-20T04:56:13.492Z,1010.12
2023-02-20T04:56:35.017Z,1010.43
2023-02-20T04:57:01.924Z,1010.43
2023-02-20T04:57:33.187Z,1010.43
2023-02-20T04:58:05.562Z,1010.33
2023-02-20T04:58:37.305Z,1010.33
2023-02-20T04:59:09.369Z,1010.23
2023-02-20T04:59:34.476Z,1010.12
2023-02-20T04:59:57.281Z,1010.12
2023-02-20T05:00:30.254Z,1010.12
2023-02-20T05:01:01.277Z,1010.33
2023-02-20T05:01:33.192Z,1010.33
2023-02-20T05:02:04.757Z,1010.02
2023-02-20T05:02:33.947Z,1010.12
2023-02-20T05:02:52.774Z,1010.12
2023-02-20T05:03:25.418Z,1010.12
2023-02-20T05:03:41.937Z,1010.12
2023-02-20T05:04:12.860Z,1010.12
2023-02-20T05:04:34.945Z,1010.33
2023-02-20T05:05:01.155Z,1010.33
2023-02-20T05:05:32.749Z,1010.33
2023-02-20T05:06:04.768Z,1010.33
2023-02-20T05:06:36.964Z,1009.92
2023-02-20T05:06:53.386Z,1009.92
2023-02-20T05:07:25.324Z,1009.92
2023-02-20T05:07:42.357Z,1009.92
2023-02-20T05:08:13.208Z,1009.92
2023-02-20T05:08:34.914Z,1010.02
2023-02-20T05:09:01.266Z,1010.02
2023-02-20T05:09:33.217Z,1010.02
2023-02-20T05:10:05.559Z,1010.02
2023-02-20T05:10:34.966Z,1010.12
2023-02-20T05:10:53.480Z,1010.12
2023-02-20T05:11:25.291Z,1010.12
2023-02-20T05:11:42.494Z,1010.12
2023-02-20T05:12:13.224Z,1010.12
2023-02-20T05:12:35.570Z,1010.12
2023-02-20T05:13:02.118Z,1010.12
2023-02-20T05:13:33.265Z,1010.12
2023-02-20T05:14:05.288Z,1009.92
2023-02-20T05:14:34.600Z,1010.02
2023-02-20T05:14:55.554Z,1010.02
2023-02-20T05:15:26.243Z,1010.02
2023-02-20T05:15:42.435Z,1010.33
2023-02-20T05:16:17.084Z,1010.33
2023-02-20T05:16:34.988Z,1010.12
2023-02-20T05:17:01.289Z,1010.12
2023-02-20T05:17:33.229Z,1010.12
2023-02-20T05:18:05.225Z,1009.92
2023-02-20T05:18:34.523Z,1010.12
2023-02-20T05:18:53.214Z,1010.12
2023-02-20T05:19:26.584Z,1010.12
2023-02-20T05:19:42.468Z,1010.12
2023-02-20T05:20:13.555Z,1010.12
2023-02-20T05:20:34.952Z,1009.92
2023-02-20T05:21:01.271Z,1009.92
2023-02-20T05:21:33.254Z,1009.92
2023-02-20T05:22:05.285Z,1009.92
2023-02-20T05:22:39.180Z,1009.92
2023-02-20T05:23:09.233Z,1010.02
2023-02-20T05:23:34.483Z,1010.02
2023-02-20T05:23:57.202Z,1010.02
2023-02-20T05:24:29.226Z,1010.02
2023-02-20T05:25:03.362Z,1010.02
2023-02-20T05:25:33.327Z,1010.02
2023-02-20T05:26:05.281Z,1009.82
2023-02-20T05:26:34.467Z,1009.92
2023-02-20T05:26:53.233Z,1009.92
2023-02-20T05:27:25.215Z,1009.92
2023-02-20T05:27:42.386Z,1010.02
2023-02-20T05:28:13.225Z,1010.02
2023-02-20T05:28:34.962Z,1009.92
2023-02-20T05:29:02.319Z,1009.92
2023-02-20T05:29:33.255Z,1009.92
2023-02-20T05:30:07.464Z,1009.92
2023-02-20T05:30:34.553Z,1009.92
2023-02-20T05:30:53.731Z,1009.92
2023-02-20T05:31:25.416Z,1009.92
2023-02-20T05:31:42.526Z,1009.92
2023-02-20T05:32:14.312Z,1009.92
2023-02-20T05:32:34.956Z,1009.82
2023-02-20T05:33:02.912Z,1009.82
2023-02-20T05:33:33.252Z,1009.82
2023-02-20T05:34:05.265Z,1010.12
2023-02-20T05:34:35.232Z,1010.02
2023-02-20T05:34:53.284Z,1010.02
2023-02-20T05:35:26.760Z,1010.02
2023-02-20T05:35:42.468Z,1010.12
2023-02-20T05:36:13.494Z,1010.12
2023-02-20T05:36:35.311Z,1009.82
2023-02-20T05:37:01.271Z,1009.82
2023-02-20T05:37:33.813Z,1009.82
2023-02-20T05:38:05.289Z,1010.12
2023-02-20T05:38:35.338Z,1009.72
2023-02-20T05:38:53.212Z,1009.72
2023-02-20T05:39:25.533Z,1009.72
2023-02-20T05:39:57.232Z,1009.92
2023-02-20T05:40:29.494Z,1009.92
2023-02-20T05:41:01.264Z,1009.72
2023-02-20T05:41:33.237Z,1009.72
2023-02-20T05:42:05.240Z,1009.72
2023-02-20T05:42:36.090Z,1009.72
2023-02-20T05:42:53.242Z,1009.72
2023-02-20T05:43:25.272Z,1009.72
2023-02-20T05:43:42.397Z,1009.92
2023-02-20T05:44:13.242Z,1009.92
2023-02-20T05:44:35.235Z,1009.62
2023-02-20T05:45:03.938Z,1009.62
2023-02-20T05:45:33.291Z,1009.62
2023-02-20T05:46:07.133Z,1009.92
2023-02-20T05:46:34.525Z,1009.92
2023-02-20T05:46:53.222Z,1009.92
2023-02-20T05:47:25.250Z,1009.92